Time;durP1;ratioP1;P1;durP2;ratioP2;P2;SDS_P1;SDS_P2;PMS_P1;PMS_P2;Temp;Humidity;BMP_temperature;BMP_pressure;BME280_temperature;BME280_humidity;BME280_pressure;Samples;Min_cycle;Max_cycle;Signal;HPM_P1;HPM_P2
2023/04/07 00:02:05;;;;;;;19.65;11.35;;;6.80;21.70;;;;;;7371092;19;20011;-76
2023/04/07 00:04:38;;;;;;;17.67;10.48;;;6.90;21.90;;;;;;7370493;19;20010;-75
2023/04/07 00:07:08;;;;;;;17.67;10.63;;;6.90;20.80;;;;;;7369875;19;20007;-75
2023/04/07 00:09:38;;;;;;;15.73;10.32;;;6.90;20.80;;;;;;7391059;19;20057;-75
2023/04/07 00:12:08;;;;;;;17.27;10.52;;;6.90;20.30;;;;;;7371086;19;20013;-74
2023/04/07 00:14:38;;;;;;;15.80;10.18;;;6.90;19.70;;;;;;7369718;19;20010;-76
2023/04/07 00:17:07;;;;;;;17.52;11.07;;;6.90;19.30;;;;;;7369443;19;20022;-75
2023/04/07 00:19:40;;;;;;;14.38;9.73;;;6.90;19.80;;;;;;7369236;19;20024;-75
2023/04/07 00:22:10;;;;;;;17.38;10.35;;;6.90;20.80;;;;;;7371224;19;20019;-74
2023/04/07 00:24:40;;;;;;;18.50;10.07;;;6.80;20.60;;;;;;7390325;19;20410;-75
2023/04/07 00:27:10;;;;;;;15.93;10.02;;;6.80;20.70;;;;;;7368635;19;20011;-75
2023/04/07 00:29:39;;;;;;;16.60;11.27;;;6.80;20.30;;;;;;7368332;19;20042;-74
2023/04/07 00:32:10;;;;;;;15.20;9.73;;;6.90;20.70;;;;;;7370709;19;20470;-75
2023/04/07 00:34:42;;;;;;;14.25;9.40;;;6.80;19.40;;;;;;7369427;19;20493;-76
2023/04/07 00:37:12;;;;;;;14.55;9.48;;;6.80;19.60;;;;;;7369303;19;20018;-75
2023/04/07 00:39:42;;;;;;;16.13;9.90;;;6.80;20.00;;;;;;7388528;19;20495;-75
2023/04/07 00:42:12;;;;;;;13.93;9.25;;;6.80;20.20;;;;;;7370213;19;20006;-75
2023/04/07 00:44:42;;;;;;;14.45;8.82;;;6.80;20.30;;;;;;7368532;19;20478;-75
2023/04/07 00:47:12;;;;;;;14.90;9.38;;;6.80;19.70;;;;;;7368487;19;20010;-75
2023/04/07 00:49:45;;;;;;;13.10;8.93;;;6.80;19.40;;;;;;7368825;19;20035;-75
2023/04/07 00:52:16;;;;;;;14.18;9.32;;;6.80;18.30;;;;;;7370090;19;20014;-75
2023/04/07 00:54:47;;;;;;;13.18;9.30;;;6.80;19.80;;;;;;7390418;19;20021;-74
2023/04/07 00:57:17;;;;;;;13.35;9.02;;;6.80;19.80;;;;;;7368792;19;20006;-76
2023/04/07 00:59:47;;;;;;;14.60;8.63;;;6.80;20.80;;;;;;7367196;19;20019;-75
2023/04/07 01:02:22;;;;;;;13.07;8.77;;;6.70;20.30;;;;;;7369301;19;20007;-75
2023/04/07 01:05:02;;;;;;;13.82;8.52;;;6.70;20.40;;;;;;7368363;19;20018;-75
2023/04/07 01:07:54;;;;;;;13.73;9.27;;;6.70;20.10;;;;;;7366292;19;20014;-75
2023/04/07 01:10:31;;;;;;;12.52;8.35;;;6.80;20.10;;;;;;7366930;19;20042;-74
2023/04/07 01:13:07;;;;;;;14.75;9.07;;;6.70;20.00;;;;;;7369781;19;20348;-74
2023/04/07 01:15:39;;;;;;;15.20;9.13;;;6.70;20.70;;;;;;7388114;19;20015;-76
2023/04/07 01:18:14;;;;;;;12.70;8.27;;;6.70;20.70;;;;;;7368412;19;20010;-75
2023/04/07 01:20:51;;;;;;;15.45;9.30;;;6.70;20.70;;;;;;7367511;19;20023;-75
2023/04/07 01:23:33;;;;;;;12.63;8.60;;;6.70;20.70;;;;;;7368295;19;20485;-75
2023/04/07 01:26:15;;;;;;;12.10;8.60;;;6.70;20.70;;;;;;7368283;19;20014;-75
2023/04/07 01:28:59;;;;;;;13.18;8.70;;;6.80;20.80;;;;;;7366857;19;20014;-74
2023/04/07 01:31:32;;;;;;;13.40;9.35;;;6.70;20.70;;;;;;7367308;19;20085;-73
2023/04/07 01:34:04;;;;;;;13.20;8.18;;;6.70;20.70;;;;;;7366237;19;20593;-74
2023/04/07 01:36:35;;;;;;;12.75;8.48;;;6.70;20.70;;;;;;7387797;19;20017;-74
2023/04/07 01:39:05;;;;;;;15.60;8.95;;;6.60;21.70;;;;;;7367337;19;20018;-74
2023/04/07 01:41:35;;;;;;;12.77;8.35;;;6.60;22.30;;;;;;7367164;19;20018;-75
2023/04/07 01:44:08;;;;;;;11.88;7.45;;;6.70;22.40;;;;;;7368351;19;20494;-74
2023/04/07 01:46:40;;;;;;;15.85;7.97;;;6.70;21.70;;;;;;7366627;19;20395;-75
2023/04/07 01:49:10;;;;;;;13.35;8.20;;;6.60;22.20;;;;;;7366980;19;20025;-74
2023/04/07 01:51:41;;;;;;;14.23;8.50;;;6.60;22.80;;;;;;7389416;19;20011;-74
2023/04/07 01:54:11;;;;;;;13.85;8.25;;;6.50;22.60;;;;;;7367212;19;20011;-75
2023/04/07 01:56:41;;;;;;;14.77;8.95;;;6.60;23.40;;;;;;7366019;19;20017;-75
2023/04/07 01:59:11;;;;;;;13.45;8.57;;;6.50;22.10;;;;;;7367155;19;20042;-75
2023/04/07 02:01:44;;;;;;;14.45;9.15;;;6.60;23.00;;;;;;7367149;19;20018;-74
2023/04/07 02:04:23;;;;;;;14.18;8.38;;;6.60;22.50;;;;;;7366557;19;20684;-77
2023/04/07 02:06:56;;;;;;;15.68;9.13;;;6.50;22.20;;;;;;7365939;19;20097;-74
2023/04/07 02:09:31;;;;;;;12.90;8.30;;;6.50;22.50;;;;;;7385919;19;20031;-74
2023/04/07 02:12:03;;;;;;;12.80;8.63;;;6.50;21.50;;;;;;7367377;19;20486;-74
2023/04/07 02:14:34;;;;;;;15.65;9.13;;;6.50;21.30;;;;;;7368723;19;20014;-75
2023/04/07 02:17:08;;;;;;;12.48;8.20;;;6.60;21.80;;;;;;7373874;19;20071;-74
2023/04/07 02:19:38;;;;;;;11.25;7.68;;;6.60;21.90;;;;;;7373384;19;20058;-74
2023/04/07 02:22:09;;;;;;;14.15;8.63;;;6.60;21.80;;;;;;7375072;19;20013;-74
2023/04/07 02:24:42;;;;;;;14.15;8.30;;;6.60;21.10;;;;;;7395146;19;20014;-74
2023/04/07 02:27:12;;;;;;;13.68;8.45;;;6.60;21.10;;;;;;7373846;19;20010;-74
2023/04/07 02:29:42;;;;;;;13.85;8.57;;;6.70;20.70;;;;;;7370599;19;20017;-74
2023/04/07 02:32:16;;;;;;;11.63;8.50;;;6.60;20.60;;;;;;7373947;19;20003;-74
2023/04/07 02:34:46;;;;;;;13.15;8.18;;;6.60;20.00;;;;;;7373454;19;20100;-74
2023/04/07 02:37:16;;;;;;;14.35;8.75;;;6.70;20.70;;;;;;7373008;19;20009;-75
2023/04/07 02:39:46;;;;;;;14.07;8.73;;;6.70;20.70;;;;;;7393990;19;20121;-74
2023/04/07 02:42:16;;;;;;;13.35;8.75;;;6.70;20.70;;;;;;7374042;19;20017;-75
2023/04/07 02:44:46;;;;;;;13.40;8.55;;;6.70;20.30;;;;;;7372682;19;20010;-75
2023/04/07 02:47:18;;;;;;;10.88;7.80;;;6.70;20.10;;;;;;7373133;19;20027;-74
2023/04/07 02:49:48;;;;;;;13.48;8.00;;;6.70;20.20;;;;;;7371465;19;20038;-74
2023/04/07 02:52:18;;;;;;;12.30;8.23;;;6.60;20.60;;;;;;7374334;19;20014;-75
2023/04/07 02:54:48;;;;;;;13.68;8.80;;;6.70;21.10;;;;;;7382422;19;20383;-74
2023/04/07 02:57:18;;;;;;;12.80;9.02;;;6.70;21.30;;;;;;7394534;19;20010;-74
2023/04/07 02:59:48;;;;;;;10.95;7.75;;;6.70;21.40;;;;;;7371186;19;20044;-74
2023/04/07 03:02:20;;;;;;;14.60;9.40;;;6.60;20.60;;;;;;7373819;19;20082;-75
2023/04/07 03:04:50;;;;;;;13.35;8.40;;;6.70;20.70;;;;;;7373037;19;20018;-74
2023/04/07 03:07:20;;;;;;;13.98;9.05;;;6.70;20.70;;;;;;7370791;19;20084;-74
2023/04/07 03:09:50;;;;;;;14.35;9.02;;;6.70;20.60;;;;;;7370230;19;20039;-74
2023/04/07 03:12:20;;;;;;;14.32;8.57;;;6.70;20.50;;;;;;7394258;19;20074;-74
2023/04/07 03:14:50;;;;;;;13.00;8.90;;;6.60;20.10;;;;;;7371725;19;20466;-75
2023/04/07 03:17:22;;;;;;;14.43;8.77;;;6.70;19.40;;;;;;7370504;19;20031;-75
2023/04/07 03:19:52;;;;;;;15.40;8.93;;;6.70;18.90;;;;;;7371828;19;20078;-75
2023/04/07 03:22:22;;;;;;;14.60;8.73;;;6.70;19.40;;;;;;7371703;19;20006;-75
2023/04/07 03:24:52;;;;;;;12.48;8.40;;;6.70;19.80;;;;;;7371695;19;20019;-75
2023/04/07 03:27:22;;;;;;;13.55;8.75;;;6.70;19.60;;;;;;7388352;19;20014;-74
2023/04/07 03:29:52;;;;;;;15.02;9.35;;;6.70;21.00;;;;;;7369027;19;20024;-75
2023/04/07 03:32:25;;;;;;;16.35;9.00;;;6.70;20.70;;;;;;7371490;19;20006;-74
2023/04/07 03:34:55;;;;;;;14.60;8.90;;;6.70;20.50;;;;;;7372019;19;20041;-74
2023/04/07 03:37:25;;;;;;;13.13;8.52;;;6.60;19.90;;;;;;7370024;19;20422;-74
2023/04/07 03:39:55;;;;;;;13.75;9.02;;;6.70;20.60;;;;;;7369689;19;20037;-74
2023/04/07 03:42:25;;;;;;;13.48;8.48;;;6.70;20.20;;;;;;7392066;19;20465;-75
2023/04/07 03:44:55;;;;;;;15.68;9.40;;;6.70;20.30;;;;;;7370900;19;20015;-74
2023/04/07 03:47:27;;;;;;;14.48;10.55;;;6.70;20.50;;;;;;7369764;19;20047;-74
2023/04/07 03:49:57;;;;;;;13.60;9.00;;;6.70;20.50;;;;;;7370229;19;20014;-75
2023/04/07 03:52:27;;;;;;;15.80;10.00;;;6.70;19.20;;;;;;7372352;19;20110;-75
2023/04/07 03:54:57;;;;;;;14.18;9.30;;;6.70;18.70;;;;;;7370588;19;20018;-75
2023/04/07 03:57:27;;;;;;;15.23;8.93;;;6.70;19.00;;;;;;7391126;19;20594;-75
2023/04/07 03:59:57;;;;;;;13.30;8.60;;;6.70;19.10;;;;;;7369027;19;20017;-75
2023/04/07 04:02:30;;;;;;;14.68;9.18;;;6.70;18.10;;;;;;7370489;19;20010;-74
2023/04/07 04:05:00;;;;;;;14.15;8.80;;;6.80;18.30;;;;;;7370640;19;20010;-74
2023/04/07 04:07:30;;;;;;;14.50;8.57;;;6.70;18.40;;;;;;7369760;19;20014;-74
2023/04/07 04:09:59;;;;;;;16.50;10.10;;;6.80;17.80;;;;;;7368663;19;20050;-74
2023/04/07 04:12:30;;;;;;;13.88;9.02;;;6.70;17.70;;;;;;7392098;19;20082;-74
2023/04/07 04:15:00;;;;;;;13.95;9.13;;;6.70;18.60;;;;;;7370441;19;20014;-74
2023/04/07 04:17:32;;;;;;;13.60;9.10;;;6.70;18.10;;;;;;7369105;19;20051;-74
2023/04/07 04:20:02;;;;;;;13.82;9.18;;;6.70;18.60;;;;;;7369967;19;20039;-74
2023/04/07 04:22:32;;;;;;;14.57;9.45;;;6.70;19.00;;;;;;7370542;19;20010;-74
2023/04/07 04:25:02;;;;;;;16.38;9.93;;;6.70;18.10;;;;;;7367756;19;20022;-74
2023/04/07 04:27:32;;;;;;;16.02;9.65;;;6.70;17.90;;;;;;7390690;19;20011;-73
2023/04/07 04:30:02;;;;;;;17.58;10.05;;;6.80;17.90;;;;;;7367938;19;20049;-74
2023/04/07 04:32:35;;;;;;;14.65;9.75;;;6.80;16.90;;;;;;7370020;19;20577;-74
2023/04/07 04:35:05;;;;;;;15.52;9.00;;;6.70;16.60;;;;;;7368885;19;20474;-74
2023/04/07 04:37:35;;;;;;;15.65;9.80;;;6.80;16.10;;;;;;7367113;19;20038;-73
2023/04/07 04:40:07;;;;;;;17.00;9.73;;;6.80;15.20;;;;;;7367898;19;20039;-74
2023/04/07 04:42:37;;;;;;;13.68;8.80;;;6.80;15.00;;;;;;7391232;19;20039;-74
2023/04/07 04:45:09;;;;;;;16.73;9.93;;;6.80;14.90;;;;;;7368462;19;20031;-75
2023/04/07 04:47:42;;;;;;;13.82;9.18;;;6.80;14.50;;;;;;7369310;19;20022;-74
2023/04/07 04:50:12;;;;;;;18.13;10.35;;;6.90;13.80;;;;;;7368109;19;20492;-73
2023/04/07 04:52:43;;;;;;;13.68;8.93;;;6.90;14.10;;;;;;7369621;19;20014;-73
2023/04/07 04:55:13;;;;;;;14.80;9.95;;;6.80;13.70;;;;;;7368248;19;20123;-74
2023/04/07 04:57:44;;;;;;;14.75;9.52;;;6.80;13.70;;;;;;7391478;19;20463;-74
2023/04/07 05:00:15;;;;;;;13.65;8.93;;;6.90;15.70;;;;;;7368078;19;20006;-74
2023/04/07 05:02:48;;;;;;;16.55;9.85;;;6.90;16.50;;;;;;7369050;19;20017;-73
2023/04/07 05:05:18;;;;;;;13.90;9.20;;;6.90;17.00;;;;;;7367982;19;20078;-74
2023/04/07 05:07:48;;;;;;;15.15;9.88;;;6.90;17.20;;;;;;7369816;19;20011;-74
2023/04/07 05:10:18;;;;;;;14.88;9.57;;;6.80;16.20;;;;;;7367807;19;20017;-74
2023/04/07 05:12:48;;;;;;;16.38;9.60;;;6.80;15.60;;;;;;7375560;19;20095;-75
2023/04/07 05:15:18;;;;;;;17.55;9.93;;;6.80;15.40;;;;;;7389388;19;20725;-75
2023/04/07 05:17:51;;;;;;;15.20;9.38;;;6.90;15.60;;;;;;7368466;19;20023;-75
2023/04/07 05:20:21;;;;;;;15.75;9.30;;;6.90;15.20;;;;;;7365084;19;20522;-74
2023/04/07 05:22:51;;;;;;;16.88;9.57;;;6.90;15.40;;;;;;7368568;19;20014;-74
2023/04/07 05:25:20;;;;;;;15.05;9.40;;;6.90;15.60;;;;;;7366130;19;20017;-74
2023/04/07 05:27:50;;;;;;;15.90;9.55;;;6.90;13.80;;;;;;7368232;19;20494;-75
2023/04/07 05:30:20;;;;;;;15.40;9.75;;;7.00;13.80;;;;;;7388260;19;20018;-74
2023/04/07 05:32:54;;;;;;;14.82;8.80;;;6.90;13.80;;;;;;7368044;19;20026;-74
2023/04/07 05:35:24;;;;;;;14.45;9.93;;;6.90;13.30;;;;;;7366525;19;20470;-75
2023/04/07 05:37:55;;;;;;;15.18;10.00;;;6.90;13.80;;;;;;7368530;19;20010;-75
2023/04/07 05:40:24;;;;;;;16.35;9.63;;;7.00;14.50;;;;;;7365998;19;20472;-75
2023/04/07 05:42:54;;;;;;;13.82;9.38;;;6.90;15.00;;;;;;7367366;19;20373;-75
2023/04/07 05:45:25;;;;;;;14.35;9.90;;;6.90;15.40;;;;;;7387970;19;20773;-76
2023/04/07 05:47:57;;;;;;;15.85;9.07;;;7.00;15.70;;;;;;7367538;19;20467;-74
2023/04/07 05:50:27;;;;;;;17.00;9.85;;;7.00;15.20;;;;;;7371410;19;20006;-75
2023/04/07 05:52:57;;;;;;;16.08;9.93;;;7.00;16.20;;;;;;7375169;19;20384;-74
2023/04/07 05:55:27;;;;;;;13.38;9.07;;;7.00;15.90;;;;;;7373156;19;20019;-74
2023/04/07 05:57:57;;;;;;;16.02;9.35;;;6.90;16.00;;;;;;7375310;19;20017;-74
2023/04/07 06:00:27;;;;;;;15.23;8.80;;;7.00;15.80;;;;;;7392748;19;20021;-75
2023/04/07 06:03:00;;;;;;;13.40;8.98;;;7.00;14.40;;;;;;7374977;19;20073;-74
2023/04/07 06:05:30;;;;;;;14.20;9.75;;;7.00;14.90;;;;;;7372566;19;20429;-74
2023/04/07 06:08:00;;;;;;;13.80;9.60;;;7.10;14.20;;;;;;7375142;19;20031;-75
2023/04/07 06:10:30;;;;;;;19.02;10.00;;;7.10;14.00;;;;;;7371394;19;20489;-76
2023/04/07 06:13:00;;;;;;;13.43;9.15;;;7.10;12.70;;;;;;7375034;19;20015;-76
2023/04/07 06:15:30;;;;;;;13.40;9.05;;;7.00;11.10;;;;;;7393143;19;20022;-74
2023/04/07 06:18:03;;;;;;;13.05;9.45;;;7.10;10.90;;;;;;7373300;19;20011;-76
2023/04/07 06:20:33;;;;;;;12.95;9.23;;;7.20;11.20;;;;;;7372904;19;20383;-76
2023/04/07 06:23:03;;;;;;;14.60;9.48;;;7.20;10.00;;;;;;7373969;19;20010;-74
2023/04/07 06:25:32;;;;;;;14.52;9.25;;;7.20;10.10;;;;;;7371565;19;20006;-75
2023/04/07 06:28:02;;;;;;;13.82;9.35;;;7.20;9.40;;;;;;7374325;19;20014;-75
2023/04/07 06:30:32;;;;;;;15.27;9.70;;;7.20;10.60;;;;;;7392965;19;20014;-75
2023/04/07 06:33:05;;;;;;;14.75;9.75;;;7.30;9.70;;;;;;7374129;19;20014;-75
2023/04/07 06:35:35;;;;;;;15.05;9.35;;;7.30;10.40;;;;;;7371978;19;20026;-75
2023/04/07 06:38:06;;;;;;;14.65;9.25;;;7.40;9.80;;;;;;7374399;19;20020;-75
2023/04/07 06:40:36;;;;;;;15.82;9.68;;;7.40;9.60;;;;;;7371204;19;20017;-75
2023/04/07 06:43:06;;;;;;;14.15;9.57;;;7.40;9.00;;;;;;7374349;19;20014;-74
2023/04/07 06:45:36;;;;;;;15.52;9.50;;;7.50;8.70;;;;;;7396240;19;20050;-74
2023/04/07 06:48:09;;;;;;;13.95;9.55;;;7.60;8.90;;;;;;7373573;19;20018;-75
2023/04/07 06:50:40;;;;;;;14.43;8.23;;;7.60;8.30;;;;;;7372558;19;20060;-75
2023/04/07 06:53:10;;;;;;;15.05;9.65;;;7.50;6.90;;;;;;7373355;19;20168;-74
2023/04/07 06:55:40;;;;;;;17.95;9.95;;;7.70;8.20;;;;;;7371043;19;20014;-75
2023/04/07 06:58:10;;;;;;;16.10;10.27;;;7.70;8.00;;;;;;7372642;19;20431;-75
2023/04/07 07:00:40;;;;;;;13.13;9.30;;;7.70;7.00;;;;;;7389793;19;20021;-75
2023/04/07 07:03:15;;;;;;;14.82;9.23;;;7.80;5.70;;;;;;7373731;19;20470;-74
2023/04/07 07:05:46;;;;;;;20.63;10.38;;;7.90;6.60;;;;;;7370948;19;20058;-75
2023/04/07 07:08:18;;;;;;;13.52;8.73;;;7.80;7.10;;;;;;7374609;19;20022;-73
2023/04/07 07:10:47;;;;;;;18.02;10.15;;;7.70;4.00;;;;;;7371447;19;20509;-73
2023/04/07 07:13:18;;;;;;;14.10;9.70;;;7.80;6.10;;;;;;7371984;19;20017;-74
2023/04/07 07:15:48;;;;;;;15.27;10.63;;;7.90;6.40;;;;;;7382317;19;20018;-73
2023/04/07 07:18:21;;;;;;;14.90;9.98;;;7.90;5.20;;;;;;7394487;19;20011;-74
2023/04/07 07:20:51;;;;;;;16.88;9.98;;;8.00;4.40;;;;;;7371449;19;20014;-73
2023/04/07 07:23:20;;;;;;;16.55;9.95;;;8.10;3.60;;;;;;7373117;19;20003;-73
2023/04/07 07:25:50;;;;;;;14.40;10.32;;;8.30;2.60;;;;;;7371723;19;20011;-75
2023/04/07 07:28:20;;;;;;;14.98;9.65;;;8.40;1.00;;;;;;7372218;19;20010;-75
2023/04/07 07:30:50;;;;;;;16.20;10.18;;;8.60;1.00;;;;;;7369109;19;20478;-74
2023/04/07 07:33:24;;;;;;;14.48;10.27;;;8.60;1.00;;;;;;7391209;19;20082;-74
2023/04/07 07:35:54;;;;;;;13.82;9.73;;;8.60;1.00;;;;;;7370774;19;20375;-73
2023/04/07 07:38:26;;;;;;;14.60;9.23;;;8.80;1.00;;;;;;7371447;19;20014;-74
2023/04/07 07:40:56;;;;;;;15.63;9.65;;;8.90;1.00;;;;;;7370263;19;20011;-74
2023/04/07 07:43:26;;;;;;;14.30;9.18;;;9.20;1.00;;;;;;7370816;19;20018;-74
2023/04/07 07:45:56;;;;;;;12.50;8.60;;;9.30;1.00;;;;;;7370264;19;20494;-73
2023/04/07 07:48:29;;;;;;;14.48;9.75;;;9.50;1.00;;;;;;7392176;19;20017;-73
2023/04/07 07:50:59;;;;;;;14.25;10.13;;;9.80;1.00;;;;;;7370162;19;20471;-73
2023/04/07 07:53:29;;;;;;;12.48;8.43;;;10.10;1.00;;;;;;7369115;19;20018;-73
2023/04/07 07:55:59;;;;;;;12.25;8.57;;;10.20;1.00;;;;;;7369976;19;20014;-74
2023/04/07 07:58:29;;;;;;;14.13;9.40;;;10.20;1.00;;;;;;7370581;19;20505;-73
2023/04/07 08:00:59;;;;;;;13.80;8.52;;;10.10;1.00;;;;;;7368812;19;20024;-73
2023/04/07 08:03:31;;;;;;;10.25;7.95;;;10.10;1.00;;;;;;7391293;19;20480;-74
2023/04/07 08:06:02;;;;;;;13.82;8.40;;;10.20;1.00;;;;;;7369702;19;20371;-74
2023/04/07 08:08:31;;;;;;;10.85;8.25;;;10.20;1.00;;;;;;7368828;19;20002;-73
2023/04/07 08:11:01;;;;;;;12.27;7.95;;;10.30;1.00;;;;;;7369128;19;20043;-73
2023/04/07 08:13:31;;;;;;;11.65;8.02;;;10.20;1.00;;;;;;7368793;19;20010;-73
2023/04/07 08:16:01;;;;;;;11.10;8.15;;;10.00;1.00;;;;;;7369047;19;20745;-74
2023/04/07 08:18:34;;;;;;;10.98;7.50;;;10.10;1.00;;;;;;7391189;19;20010;-73
2023/04/07 08:21:06;;;;;;;10.68;7.25;;;10.20;1.00;;;;;;7369807;19;20007;-74
2023/04/07 08:23:35;;;;;;;9.95;6.93;;;10.30;1.00;;;;;;7369301;19;20014;-74
2023/04/07 08:26:05;;;;;;;10.10;6.85;;;10.30;1.00;;;;;;7369473;19;20478;-73
2023/04/07 08:28:35;;;;;;;9.73;7.53;;;10.40;1.00;;;;;;7370797;19;20015;-74
2023/04/07 08:31:05;;;;;;;10.68;8.05;;;10.60;1.00;;;;;;7368251;19;20014;-73
2023/04/07 08:33:38;;;;;;;9.52;7.13;;;10.80;1.00;;;;;;7389249;19;20014;-74
2023/04/07 08:36:08;;;;;;;10.35;6.60;;;11.10;1.00;;;;;;7368484;19;20485;-74
2023/04/07 08:38:38;;;;;;;12.52;7.90;;;11.20;1.00;;;;;;7370193;19;20015;-75
2023/04/07 08:41:13;;;;;;;9.70;7.05;;;11.30;1.00;;;;;;7369102;19;20027;-74
2023/04/07 08:43:45;;;;;;;9.45;7.47;;;11.00;1.00;;;;;;7369334;19;20006;-74
2023/04/07 08:46:17;;;;;;;12.13;7.22;;;10.80;1.00;;;;;;7368881;19;20011;-74
2023/04/07 08:48:52;;;;;;;9.90;7.55;;;10.40;1.00;;;;;;7390960;19;20485;-75
2023/04/07 08:51:30;;;;;;;11.82;7.38;;;10.70;1.00;;;;;;7367730;19;20475;-74
2023/04/07 08:54:07;;;;;;;9.35;7.47;;;10.90;1.00;;;;;;7367077;19;20007;-74
2023/04/07 08:56:40;;;;;;;10.65;7.57;;;10.80;1.00;;;;;;7367464;19;20010;-74
2023/04/07 08:59:11;;;;;;;10.23;7.30;;;11.10;1.00;;;;;;7369267;19;20425;-74
2023/04/07 09:01:42;;;;;;;8.48;6.97;;;11.10;1.00;;;;;;7369641;19;20011;-74
2023/04/07 09:04:15;;;;;;;11.50;7.15;;;11.30;1.00;;;;;;7368364;19;20010;-74
2023/04/07 09:06:45;;;;;;;10.75;6.97;;;11.50;1.00;;;;;;7388757;19;20082;-74
2023/04/07 09:09:15;;;;;;;10.07;6.85;;;11.70;1.00;;;;;;7368488;19;20010;-74
2023/04/07 09:11:45;;;;;;;9.38;6.82;;;12.20;1.00;;;;;;7368789;19;20021;-75
2023/04/07 09:14:17;;;;;;;9.57;6.18;;;12.00;1.00;;;;;;7367624;19;20006;-74
2023/04/07 09:16:47;;;;;;;8.73;6.32;;;11.80;1.00;;;;;;7368191;19;20086;-75
2023/04/07 09:19:20;;;;;;;9.27;6.30;;;11.40;1.00;;;;;;7368729;19;20105;-74
2023/04/07 09:21:51;;;;;;;9.80;6.80;;;11.80;1.00;;;;;;7369355;19;20010;-74
2023/04/07 09:24:26;;;;;;;8.75;6.32;;;11.70;1.00;;;;;;7386952;19;20033;-74
2023/04/07 09:27:19;;;;;;;8.95;6.40;;;11.50;1.00;;;;;;7367428;19;20011;-74
2023/04/07 09:29:49;;;;;;;8.57;6.18;;;11.30;1.00;;;;;;7365528;19;20487;-75
2023/04/07 09:32:37;;;;;;;13.82;6.63;;;11.00;1.00;;;;;;7368665;19;20018;-75
2023/04/07 09:35:11;;;;;;;11.30;6.38;;;11.30;1.00;;;;;;7366535;19;20006;-75
2023/04/07 09:37:41;;;;;;;9.10;5.70;;;11.40;1.00;;;;;;7368695;19;20010;-73
2023/04/07 09:40:11;;;;;;;9.05;5.68;;;11.50;1.00;;;;;;7367008;19;20022;-75
2023/04/07 09:42:48;;;;;;;10.73;6.28;;;11.80;1.00;;;;;;7389512;19;20030;-74
2023/04/07 09:45:27;;;;;;;9.90;6.28;;;12.00;1.00;;;;;;7366644;19;20006;-74
2023/04/07 09:48:09;;;;;;;9.85;6.35;;;12.20;1.00;;;;;;7368139;19;20097;-73
2023/04/07 09:50:48;;;;;;;7.68;6.30;;;12.00;1.00;;;;;;7367073;19;20173;-74
2023/04/07 09:53:19;;;;;;;10.95;6.05;;;12.10;1.00;;;;;;7366909;19;20014;-74
2023/04/07 09:55:49;;;;;;;11.55;6.82;;;11.90;1.00;;;;;;7366258;19;20021;-74
2023/04/07 09:58:19;;;;;;;10.93;6.35;;;12.00;1.00;;;;;;7367866;19;20482;-74
2023/04/07 10:00:50;;;;;;;8.15;6.38;;;12.30;1.00;;;;;;7364998;19;20026;-74
2023/04/07 10:03:20;;;;;;;10.38;6.18;;;12.40;1.00;;;;;;7387454;19;20018;-74
2023/04/07 10:05:53;;;;;;;10.52;6.13;;;11.50;1.00;;;;;;7366136;19;20011;-75
2023/04/07 10:08:24;;;;;;;14.02;6.82;;;12.00;1.00;;;;;;7366637;19;20003;-75
2023/04/07 10:10:54;;;;;;;8.85;5.72;;;12.30;1.00;;;;;;7366382;19;20014;-75
2023/04/07 10:13:26;;;;;;;7.00;5.07;;;12.50;1.00;;;;;;7365293;19;20006;-75
2023/04/07 10:15:56;;;;;;;7.80;5.25;;;12.50;1.00;;;;;;7366478;19;20015;-75
2023/04/07 10:18:30;;;;;;;8.65;5.10;;;12.40;1.00;;;;;;7388854;19;20011;-75
2023/04/07 10:21:06;;;;;;;8.27;6.22;;;12.70;1.00;;;;;;7366145;19;20046;-75
2023/04/07 10:23:52;;;;;;;8.70;5.93;;;13.10;1.00;;;;;;7365177;19;20015;-74
2023/04/07 10:26:27;;;;;;;10.15;6.28;;;12.90;1.00;;;;;;7365181;19;20478;-74
2023/04/07 10:29:04;;;;;;;10.25;5.72;;;12.80;1.00;;;;;;7366798;19;20003;-73
2023/04/07 10:31:35;;;;;;;9.65;5.80;;;12.60;1.00;;;;;;7366698;19;20031;-74
2023/04/07 10:34:04;;;;;;;9.57;5.93;;;12.60;1.00;;;;;;7365138;19;20483;-74
2023/04/07 10:36:37;;;;;;;11.80;6.20;;;12.10;1.00;;;;;;7389129;19;20019;-74
2023/04/07 10:39:23;;;;;;;8.25;5.95;;;12.00;1.00;;;;;;7372978;19;20506;-75
2023/04/07 10:41:53;;;;;;;11.13;6.45;;;11.80;1.00;;;;;;7373366;19;20007;-75
2023/04/07 10:44:49;;;;;;;12.43;6.53;;;11.90;1.00;;;;;;7372119;19;20481;-75
2023/04/07 10:47:19;;;;;;;10.90;6.35;;;11.90;1.00;;;;;;7372119;19;20098;-71
2023/04/07 10:50:17;;;;;;;10.48;5.95;;;11.90;1.00;;;;;;7372693;19;20014;-74
2023/04/07 10:52:51;;;;;;;6.90;5.65;;;11.90;1.00;;;;;;7373499;19;20010;-75
2023/04/07 10:55:32;;;;;;;10.93;5.93;;;11.70;1.00;;;;;;7369191;19;20431;-74
2023/04/07 10:58:18;;;;;;;8.55;6.35;;;11.70;1.00;;;;;;7370878;19;20049;-73
2023/04/07 11:01:22;;;;;;;8.15;5.97;;;11.60;1.00;;;;;;7381952;19;20034;-75
2023/04/07 11:04:00;;;;;;;10.23;6.68;;;11.60;1.00;;;;;;7373156;19;20037;-73
2023/04/07 11:06:31;;;;;;;9.25;6.60;;;11.90;1.00;;;;;;7393877;19;20006;-75
2023/04/07 11:09:03;;;;;;;9.40;6.50;;;11.90;1.00;;;;;;7371936;19;20482;-75
2023/04/07 11:11:39;;;;;;;6.90;5.68;;;12.10;1.00;;;;;;7372177;19;20081;-74
2023/04/07 11:14:09;;;;;;;9.52;5.63;;;12.10;1.00;;;;;;7370704;19;20508;-75
2023/04/07 11:16:44;;;;;;;6.80;5.40;;;12.00;1.00;;;;;;7372043;19;20821;-76
2023/04/07 11:19:14;;;;;;;10.40;5.07;;;12.40;1.00;;;;;;7372452;19;20103;-75
2023/04/07 11:21:44;;;;;;;9.82;5.78;;;12.60;1.00;;;;;;7394937;19;20054;-75
2023/04/07 11:24:38;;;;;;;8.65;6.00;;;12.60;1.00;;;;;;7372352;19;20006;-74
2023/04/07 11:27:13;;;;;;;12.48;5.80;;;12.20;1.00;;;;;;7372147;19;20453;-75
2023/04/07 11:29:44;;;;;;;8.18;5.63;;;12.20;1.00;;;;;;7369670;19;20470;-75
2023/04/07 11:32:15;;;;;;;7.78;5.82;;;12.40;1.00;;;;;;7372943;19;20018;-75
2023/04/07 11:34:45;;;;;;;8.85;6.05;;;12.20;1.00;;;;;;7369394;19;20465;-74
2023/04/07 11:37:22;;;;;;;8.68;5.82;;;12.20;1.00;;;;;;7372353;19;20014;-75
2023/04/07 11:39:57;;;;;;;8.00;5.85;;;12.00;1.00;;;;;;7369708;19;20011;-75
2023/04/07 11:42:34;;;;;;;8.27;4.97;;;12.30;1.00;;;;;;7393040;19;20029;-74
2023/04/07 11:45:04;;;;;;;6.70;4.82;;;12.20;1.00;;;;;;7370178;19;20022;-74
2023/04/07 11:47:37;;;;;;;7.13;5.07;;;12.20;1.00;;;;;;7370112;19;20014;-75
2023/04/07 11:50:09;;;;;;;5.97;4.45;;;12.10;1.00;;;;;;7370784;19;20168;-75
2023/04/07 11:52:44;;;;;;;10.35;5.53;;;12.10;1.00;;;;;;7371207;19;20014;-75
2023/04/07 11:55:24;;;;;;;7.22;5.07;;;12.10;1.00;;;;;;7368639;19;20919;-75
2023/04/07 11:57:54;;;;;;;9.48;4.35;;;12.00;1.00;;;;;;7371667;19;20015;-75
2023/04/07 12:00:25;;;;;;;11.85;5.68;;;11.50;1.00;;;;;;7389878;19;20074;-73
2023/04/07 12:02:55;;;;;;;11.38;5.75;;;11.00;1.00;;;;;;7371094;19;20011;-75
2023/04/07 12:05:25;;;;;;;8.77;5.40;;;11.20;1.00;;;;;;7368052;19;20574;-75
2023/04/07 12:07:56;;;;;;;7.10;4.30;;;10.90;1.00;;;;;;7370459;19;20718;-76
2023/04/07 12:10:29;;;;;;;7.28;5.22;;;10.70;1.00;;;;;;7368153;19;20345;-76
2023/04/07 12:12:59;;;;;;;5.40;3.97;;;10.70;1.00;;;;;;7370997;19;20035;-75
2023/04/07 12:15:29;;;;;;;8.25;4.90;;;10.60;1.00;;;;;;7388419;19;20006;-75
2023/04/07 12:17:59;;;;;;;12.75;7.85;;;10.70;1.00;;;;;;7370653;19;20018;-74
2023/04/07 12:20:29;;;;;;;4.50;3.33;;;10.70;1.00;;;;;;7368711;19;20014;-75
2023/04/07 12:22:59;;;;;;;8.95;4.93;;;10.60;1.00;;;;;;7370180;19;20066;-74
2023/04/07 12:25:32;;;;;;;4.50;3.03;;;10.90;1.00;;;;;;7367949;19;20023;-75
2023/04/07 12:28:01;;;;;;;7.72;3.40;;;10.80;1.00;;;;;;7370722;19;20025;-75
2023/04/07 12:30:31;;;;;;;5.50;3.20;;;11.00;1.00;;;;;;7389812;19;20017;-75
2023/04/07 12:33:02;;;;;;;6.13;3.28;;;11.00;1.00;;;;;;7370184;19;20026;-74
2023/04/07 12:35:32;;;;;;;6.50;3.00;;;11.00;1.00;;;;;;7366179;19;20015;-75
2023/04/07 12:38:02;;;;;;;3.92;2.75;;;10.90;1.00;;;;;;7370406;19;20014;-75
2023/04/07 12:40:35;;;;;;;4.82;2.95;;;11.00;1.00;;;;;;7369135;19;20474;-75
2023/04/07 12:43:05;;;;;;;5.55;2.83;;;11.20;1.00;;;;;;7370111;19;20014;-75
2023/04/07 12:45:35;;;;;;;4.43;2.78;;;11.00;1.00;;;;;;7389488;19;20482;-74
2023/04/07 12:48:05;;;;;;;5.18;3.05;;;11.20;1.00;;;;;;7369647;19;20086;-76
2023/04/07 12:50:37;;;;;;;6.15;3.35;;;11.10;1.00;;;;;;7366584;19;20013;-76
2023/04/07 12:53:08;;;;;;;6.03;3.33;;;11.20;1.00;;;;;;7368957;19;20019;-75
2023/04/07 12:55:40;;;;;;;5.85;3.78;;;11.50;1.00;;;;;;7367239;19;20017;-75
2023/04/07 12:58:10;;;;;;;5.07;3.88;;;11.50;1.00;;;;;;7369537;19;20010;-75
2023/04/07 13:00:41;;;;;;;6.57;4.50;;;11.40;1.00;;;;;;7388335;19;20396;-74
2023/04/07 13:03:11;;;;;;;6.25;4.40;;;11.30;1.00;;;;;;7369757;19;20091;-75
2023/04/07 13:05:41;;;;;;;5.80;4.35;;;11.20;1.00;;;;;;7366512;19;20022;-74
2023/04/07 13:08:11;;;;;;;5.43;4.22;;;11.50;1.00;;;;;;7369799;19;20014;-74
2023/04/07 13:10:44;;;;;;;5.43;4.40;;;11.70;1.00;;;;;;7366998;19;20015;-74
2023/04/07 13:13:14;;;;;;;6.90;4.63;;;11.80;1.00;;;;;;7369746;19;20030;-74
2023/04/07 13:15:44;;;;;;;6.50;4.93;;;11.80;1.00;;;;;;7387004;19;20264;-74